sensor_id;sensor_type;location;lat;lon;timestamp;P1;durP1;ratioP1;P2;durP2;ratioP2
35418;SDS011;21525;41.240;16.500;2023-05-07T00:01:57;18.80;;;12.00;;
35418;SDS011;21525;41.240;16.500;2023-05-07T00:04:23;17.73;;;12.00;;
35418;SDS011;21525;41.240;16.500;2023-05-07T00:06:48;17.13;;;11.13;;
35418;SDS011;21525;41.240;16.500;2023-05-07T00:09:15;19.67;;;10.88;;
35418;SDS011;21525;41.240;16.500;2023-05-07T00:11:41;17.35;;;10.77;;
35418;SDS011;21525;41.240;16.500;2023-05-07T00:14:08;15.05;;;10.15;;
35418;SDS011;21525;41.240;16.500;2023-05-07T00:16:34;18.10;;;10.30;;
35418;SDS011;21525;41.240;16.500;2023-05-07T00:19:00;13.52;;;8.90;;
35418;SDS011;21525;41.240;16.500;2023-05-07T00:21:25;15.32;;;9.70;;
35418;SDS011;21525;41.240;16.500;2023-05-07T00:23:52;14.88;;;9.48;;
35418;SDS011;21525;41.240;16.500;2023-05-07T00:26:19;13.65;;;8.75;;
35418;SDS011;21525;41.240;16.500;2023-05-07T00:28:47;15.05;;;9.50;;
35418;SDS011;21525;41.240;16.500;2023-05-07T00:31:13;14.93;;;9.60;;
35418;SDS011;21525;41.240;16.500;2023-05-07T00:33:38;14.15;;;10.25;;
35418;SDS011;21525;41.240;16.500;2023-05-07T00:36:04;18.15;;;10.18;;
35418;SDS011;21525;41.240;16.500;2023-05-07T00:38:30;16.88;;;10.88;;
35418;SDS011;21525;41.240;16.500;2023-05-07T00:40:56;13.63;;;9.90;;
35418;SDS011;21525;41.240;16.500;2023-05-07T00:43:22;16.25;;;10.05;;
35418;SDS011;21525;41.240;16.500;2023-05-07T00:45:47;15.15;;;10.70;;
35418;SDS011;21525;41.240;16.500;2023-05-07T00:48:13;15.10;;;9.88;;
35418;SDS011;21525;41.240;16.500;2023-05-07T00:50:39;14.60;;;9.82;;
35418;SDS011;21525;41.240;16.500;2023-05-07T00:53:05;14.18;;;8.63;;
35418;SDS011;21525;41.240;16.500;2023-05-07T00:55:32;14.38;;;8.68;;
35418;SDS011;21525;41.240;16.500;2023-05-07T00:57:58;13.07;;;7.97;;
35418;SDS011;21525;41.240;16.500;2023-05-07T01:00:24;15.93;;;8.90;;
35418;SDS011;21525;41.240;16.500;2023-05-07T01:02:50;11.60;;;8.70;;
35418;SDS011;21525;41.240;16.500;2023-05-07T01:05:16;14.52;;;8.48;;
35418;SDS011;21525;41.240;16.500;2023-05-07T01:07:44;14.65;;;7.93;;
35418;SDS011;21525;41.240;16.500;2023-05-07T01:10:10;12.07;;;7.82;;
35418;SDS011;21525;41.240;16.500;2023-05-07T01:12:37;15.13;;;8.27;;
35418;SDS011;21525;41.240;16.500;2023-05-07T01:15:05;12.03;;;8.27;;
35418;SDS011;21525;41.240;16.500;2023-05-07T01:17:36;13.57;;;8.32;;
35418;SDS011;21525;41.240;16.500;2023-05-07T01:20:04;12.82;;;8.35;;
35418;SDS011;21525;41.240;16.500;2023-05-07T01:22:33;14.85;;;8.38;;
35418;SDS011;21525;41.240;16.500;2023-05-07T01:25:02;11.57;;;8.45;;
35418;SDS011;21525;41.240;16.500;2023-05-07T01:27:30;12.52;;;7.68;;
35418;SDS011;21525;41.240;16.500;2023-05-07T01:29:56;13.20;;;9.05;;
35418;SDS011;21525;41.240;16.500;2023-05-07T01:32:27;12.32;;;8.45;;
35418;SDS011;21525;41.240;16.500;2023-05-07T01:34:57;14.40;;;9.05;;
35418;SDS011;21525;41.240;16.500;2023-05-07T01:37:25;14.07;;;8.75;;
35418;SDS011;21525;41.240;16.500;2023-05-07T01:39:52;14.98;;;9.38;;
35418;SDS011;21525;41.240;16.500;2023-05-07T01:42:19;14.77;;;9.23;;
35418;SDS011;21525;41.240;16.500;2023-05-07T01:44:45;13.93;;;8.85;;
35418;SDS011;21525;41.240;16.500;2023-05-07T01:47:11;12.32;;;8.18;;
35418;SDS011;21525;41.240;16.500;2023-05-07T01:49:39;13.48;;;8.68;;
35418;SDS011;21525;41.240;16.500;2023-05-07T01:52:05;14.55;;;8.45;;
35418;SDS011;21525;41.240;16.500;2023-05-07T01:54:31;12.73;;;8.65;;
35418;SDS011;21525;41.240;16.500;2023-05-07T01:56:58;12.85;;;8.57;;
35418;SDS011;21525;41.240;16.500;2023-05-07T01:59:24;12.20;;;8.25;;
35418;SDS011;21525;41.240;16.500;2023-05-07T02:01:50;15.20;;;8.25;;
35418;SDS011;21525;41.240;16.500;2023-05-07T02:04:16;14.43;;;7.85;;
35418;SDS011;21525;41.240;16.500;2023-05-07T02:06:42;11.05;;;7.78;;
35418;SDS011;21525;41.240;16.500;2023-05-07T02:09:09;15.52;;;7.70;;
35418;SDS011;21525;41.240;16.500;2023-05-07T02:11:36;12.38;;;8.00;;
35418;SDS011;21525;41.240;16.500;2023-05-07T02:14:02;11.52;;;7.72;;
35418;SDS011;21525;41.240;16.500;2023-05-07T02:16:28;14.95;;;7.93;;
35418;SDS011;21525;41.240;16.500;2023-05-07T02:18:54;11.45;;;7.60;;
35418;SDS011;21525;41.240;16.500;2023-05-07T02:21:20;12.02;;;7.05;;
35418;SDS011;21525;41.240;16.500;2023-05-07T02:23:45;13.43;;;7.85;;
35418;SDS011;21525;41.240;16.500;2023-05-07T02:26:11;12.10;;;7.30;;
35418;SDS011;21525;41.240;16.500;2023-05-07T02:28:37;10.57;;;6.85;;
35418;SDS011;21525;41.240;16.500;2023-05-07T02:31:04;12.45;;;6.95;;
35418;SDS011;21525;41.240;16.500;2023-05-07T02:33:31;13.80;;;6.82;;
35418;SDS011;21525;41.240;16.500;2023-05-07T02:36:04;15.65;;;6.25;;
35418;SDS011;21525;41.240;16.500;2023-05-07T02:38:31;10.85;;;6.00;;
35418;SDS011;21525;41.240;16.500;2023-05-07T02:40:57;8.82;;;5.65;;
35418;SDS011;21525;41.240;16.500;2023-05-07T02:43:22;9.13;;;5.63;;
35418;SDS011;21525;41.240;16.500;2023-05-07T02:45:48;9.93;;;5.25;;
35418;SDS011;21525;41.240;16.500;2023-05-07T02:48:14;9.23;;;4.95;;
35418;SDS011;21525;41.240;16.500;2023-05-07T02:50:40;9.38;;;5.25;;
35418;SDS011;21525;41.240;16.500;2023-05-07T02:53:06;11.80;;;5.55;;
35418;SDS011;21525;41.240;16.500;2023-05-07T02:55:32;9.65;;;6.25;;
35418;SDS011;21525;41.240;16.500;2023-05-07T02:57:58;9.75;;;6.20;;
35418;SDS011;21525;41.240;16.500;2023-05-07T03:00:25;8.88;;;6.10;;
35418;SDS011;21525;41.240;16.500;2023-05-07T03:03:10;12.48;;;6.32;;
35418;SDS011;21525;41.240;16.500;2023-05-07T03:05:36;10.38;;;6.05;;
35418;SDS011;21525;41.240;16.500;2023-05-07T03:08:02;10.02;;;6.38;;
35418;SDS011;21525;41.240;16.500;2023-05-07T03:10:29;11.50;;;6.75;;
35418;SDS011;21525;41.240;16.500;2023-05-07T03:12:55;12.20;;;6.35;;
35418;SDS011;21525;41.240;16.500;2023-05-07T03:15:21;10.32;;;6.05;;
35418;SDS011;21525;41.240;16.500;2023-05-07T03:17:47;10.70;;;6.63;;
35418;SDS011;21525;41.240;16.500;2023-05-07T03:20:14;10.30;;;6.25;;
35418;SDS011;21525;41.240;16.500;2023-05-07T03:22:41;11.93;;;5.60;;
35418;SDS011;21525;41.240;16.500;2023-05-07T03:25:07;9.95;;;6.53;;
35418;SDS011;21525;41.240;16.500;2023-05-07T03:27:34;9.30;;;5.47;;
35418;SDS011;21525;41.240;16.500;2023-05-07T03:30:00;8.02;;;5.78;;
35418;SDS011;21525;41.240;16.500;2023-05-07T03:32:26;8.85;;;5.45;;
35418;SDS011;21525;41.240;16.500;2023-05-07T03:34:53;8.50;;;5.03;;
35418;SDS011;21525;41.240;16.500;2023-05-07T03:37:18;9.95;;;5.30;;
35418;SDS011;21525;41.240;16.500;2023-05-07T03:39:44;10.25;;;5.70;;
35418;SDS011;21525;41.240;16.500;2023-05-07T03:42:10;7.13;;;4.35;;
35418;SDS011;21525;41.240;16.500;2023-05-07T03:44:37;7.40;;;4.80;;
35418;SDS011;21525;41.240;16.500;2023-05-07T03:47:02;6.63;;;4.70;;
35418;SDS011;21525;41.240;16.500;2023-05-07T03:49:28;6.55;;;4.20;;
35418;SDS011;21525;41.240;16.500;2023-05-07T03:51:54;7.90;;;4.28;;
35418;SDS011;21525;41.240;16.500;2023-05-07T03:54:21;7.43;;;4.68;;
35418;SDS011;21525;41.240;16.500;2023-05-07T03:56:47;7.55;;;4.70;;
35418;SDS011;21525;41.240;16.500;2023-05-07T03:59:13;14.30;;;5.47;;
35418;SDS011;21525;41.240;16.500;2023-05-07T04:01:40;11.60;;;5.50;;
35418;SDS011;21525;41.240;16.500;2023-05-07T04:04:06;11.88;;;5.40;;
35418;SDS011;21525;41.240;16.500;2023-05-07T04:06:34;8.20;;;5.25;;
35418;SDS011;21525;41.240;16.500;2023-05-07T04:09:00;9.63;;;4.75;;
35418;SDS011;21525;41.240;16.500;2023-05-07T04:11:26;9.57;;;4.50;;
35418;SDS011;21525;41.240;16.500;2023-05-07T04:13:53;18.30;;;4.97;;
35418;SDS011;21525;41.240;16.500;2023-05-07T04:16:22;22.90;;;5.03;;
35418;SDS011;21525;41.240;16.500;2023-05-07T04:18:47;11.13;;;4.57;;
35418;SDS011;21525;41.240;16.500;2023-05-07T04:21:16;13.85;;;4.85;;
35418;SDS011;21525;41.240;16.500;2023-05-07T04:23:46;14.55;;;4.57;;
35418;SDS011;21525;41.240;16.500;2023-05-07T04:26:13;9.48;;;4.85;;
35418;SDS011;21525;41.240;16.500;2023-05-07T04:28:42;9.43;;;4.35;;
35418;SDS011;21525;41.240;16.500;2023-05-07T04:31:08;12.35;;;5.05;;
35418;SDS011;21525;41.240;16.500;2023-05-07T04:33:36;9.55;;;4.60;;
35418;SDS011;21525;41.240;16.500;2023-05-07T04:36:03;7.93;;;4.65;;
35418;SDS011;21525;41.240;16.500;2023-05-07T04:38:31;10.23;;;5.05;;
35418;SDS011;21525;41.240;16.500;2023-05-07T04:41:02;10.05;;;4.18;;
35418;SDS011;21525;41.240;16.500;2023-05-07T04:43:30;8.52;;;3.85;;
35418;SDS011;21525;41.240;16.500;2023-05-07T04:45:56;9.60;;;3.78;;
35418;SDS011;21525;41.240;16.500;2023-05-07T04:48:24;9.00;;;4.32;;
35418;SDS011;21525;41.240;16.500;2023-05-07T04:50:52;7.25;;;4.63;;
35418;SDS011;21525;41.240;16.500;2023-05-07T04:53:18;12.40;;;4.57;;
35418;SDS011;21525;41.240;16.500;2023-05-07T04:55:45;13.18;;;4.38;;
35418;SDS011;21525;41.240;16.500;2023-05-07T04:58:11;7.47;;;4.03;;
35418;SDS011;21525;41.240;16.500;2023-05-07T05:00:38;6.50;;;4.55;;
35418;SDS011;21525;41.240;16.500;2023-05-07T05:03:06;9.18;;;4.68;;
35418;SDS011;21525;41.240;16.500;2023-05-07T05:05:33;12.45;;;4.43;;
35418;SDS011;21525;41.240;16.500;2023-05-07T05:07:59;25.17;;;19.88;;
35418;SDS011;21525;41.240;16.500;2023-05-07T05:10:26;11.77;;;5.43;;
35418;SDS011;21525;41.240;16.500;2023-05-07T05:12:52;13.70;;;4.22;;
35418;SDS011;21525;41.240;16.500;2023-05-07T05:15:19;9.70;;;4.43;;
35418;SDS011;21525;41.240;16.500;2023-05-07T05:17:45;5.78;;;4.28;;
35418;SDS011;21525;41.240;16.500;2023-05-07T05:20:11;19.02;;;5.68;;
35418;SDS011;21525;41.240;16.500;2023-05-07T05:22:38;11.02;;;4.40;;
35418;SDS011;21525;41.240;16.500;2023-05-07T05:25:05;11.40;;;5.28;;
35418;SDS011;21525;41.240;16.500;2023-05-07T05:27:31;13.00;;;5.80;;
35418;SDS011;21525;41.240;16.500;2023-05-07T05:29:57;8.90;;;5.13;;
35418;SDS011;21525;41.240;16.500;2023-05-07T05:32:22;9.60;;;5.75;;
35418;SDS011;21525;41.240;16.500;2023-05-07T05:34:50;8.88;;;5.10;;
35418;SDS011;21525;41.240;16.500;2023-05-07T05:37:16;10.68;;;5.28;;
35418;SDS011;21525;41.240;16.500;2023-05-07T05:39:43;9.85;;;5.28;;
35418;SDS011;21525;41.240;16.500;2023-05-07T05:42:09;14.60;;;5.82;;
35418;SDS011;21525;41.240;16.500;2023-05-07T05:44:35;11.32;;;5.78;;
35418;SDS011;21525;41.240;16.500;2023-05-07T05:47:01;8.10;;;5.80;;
35418;SDS011;21525;41.240;16.500;2023-05-07T05:49:28;14.07;;;6.15;;
35418;SDS011;21525;41.240;16.500;2023-05-07T05:51:53;12.73;;;6.95;;
35418;SDS011;21525;41.240;16.500;2023-05-07T05:54:20;16.13;;;6.40;;
35418;SDS011;21525;41.240;16.500;2023-05-07T05:56:47;11.88;;;6.45;;
35418;SDS011;21525;41.240;16.500;2023-05-07T05:59:13;13.07;;;6.20;;
35418;SDS011;21525;41.240;16.500;2023-05-07T06:01:39;12.05;;;6.60;;
35418;SDS011;21525;41.240;16.500;2023-05-07T06:04:06;8.68;;;6.68;;
35418;SDS011;21525;41.240;16.500;2023-05-07T06:06:31;14.18;;;7.30;;
35418;SDS011;21525;41.240;16.500;2023-05-07T06:08:58;11.98;;;7.57;;
35418;SDS011;21525;41.240;16.500;2023-05-07T06:11:31;15.68;;;6.63;;
35418;SDS011;21525;41.240;16.500;2023-05-07T06:13:57;10.65;;;6.50;;
35418;SDS011;21525;41.240;16.500;2023-05-07T06:16:24;12.90;;;6.13;;
35418;SDS011;21525;41.240;16.500;2023-05-07T06:18:50;11.43;;;6.28;;
35418;SDS011;21525;41.240;16.500;2023-05-07T06:21:16;10.50;;;5.53;;
35418;SDS011;21525;41.240;16.500;2023-05-07T06:23:42;11.20;;;6.20;;
35418;SDS011;21525;41.240;16.500;2023-05-07T06:26:07;9.82;;;5.50;;
35418;SDS011;21525;41.240;16.500;2023-05-07T06:28:38;8.82;;;5.40;;
35418;SDS011;21525;41.240;16.500;2023-05-07T06:31:12;8.15;;;5.30;;
35418;SDS011;21525;41.240;16.500;2023-05-07T06:33:39;7.07;;;4.93;;
35418;SDS011;21525;41.240;16.500;2023-05-07T06:36:06;7.47;;;5.53;;
35418;SDS011;21525;41.240;16.500;2023-05-07T06:38:32;6.68;;;5.03;;
35418;SDS011;21525;41.240;16.500;2023-05-07T06:40:58;10.77;;;6.43;;
35418;SDS011;21525;41.240;16.500;2023-05-07T06:43:23;13.57;;;9.23;;
35418;SDS011;21525;41.240;16.500;2023-05-07T06:46:21;16.33;;;11.50;;
35418;SDS011;21525;41.240;16.500;2023-05-07T06:48:49;15.73;;;10.85;;
35418;SDS011;21525;41.240;16.500;2023-05-07T06:51:14;18.67;;;11.93;;
35418;SDS011;21525;41.240;16.500;2023-05-07T06:53:42;15.85;;;11.07;;
35418;SDS011;21525;41.240;16.500;2023-05-07T06:56:10;10.60;;;8.05;;
35418;SDS011;21525;41.240;16.500;2023-05-07T06:58:37;15.40;;;9.20;;
35418;SDS011;21525;41.240;16.500;2023-05-07T07:01:03;13.93;;;8.95;;
35418;SDS011;21525;41.240;16.500;2023-05-07T07:03:30;15.02;;;10.05;;
35418;SDS011;21525;41.240;16.500;2023-05-07T07:05:56;14.32;;;10.00;;
35418;SDS011;21525;41.240;16.500;2023-05-07T07:08:23;12.30;;;9.40;;
35418;SDS011;21525;41.240;16.500;2023-05-07T07:10:49;14.32;;;10.23;;
35418;SDS011;21525;41.240;16.500;2023-05-07T07:13:15;13.60;;;10.40;;
35418;SDS011;21525;41.240;16.500;2023-05-07T07:15:41;14.73;;;9.90;;
35418;SDS011;21525;41.240;16.500;2023-05-07T07:18:07;17.08;;;8.88;;
35418;SDS011;21525;41.240;16.500;2023-05-07T07:20:33;14.27;;;10.02;;
35418;SDS011;21525;41.240;16.500;2023-05-07T07:22:59;11.70;;;9.02;;
35418;SDS011;21525;41.240;16.500;2023-05-07T07:25:25;13.18;;;9.65;;
35418;SDS011;21525;41.240;16.500;2023-05-07T07:27:51;15.15;;;9.88;;
35418;SDS011;21525;41.240;16.500;2023-05-07T07:30:18;12.73;;;8.60;;
35418;SDS011;21525;41.240;16.500;2023-05-07T07:32:47;15.23;;;7.85;;
35418;SDS011;21525;41.240;16.500;2023-05-07T07:35:13;11.52;;;8.13;;
35418;SDS011;21525;41.240;16.500;2023-05-07T07:37:39;10.25;;;7.93;;
35418;SDS011;21525;41.240;16.500;2023-05-07T07:40:05;13.50;;;8.85;;
35418;SDS011;21525;41.240;16.500;2023-05-07T07:42:32;14.57;;;8.65;;
35418;SDS011;21525;41.240;16.500;2023-05-07T07:44:58;12.25;;;8.68;;
35418;SDS011;21525;41.240;16.500;2023-05-07T07:47:27;14.13;;;9.93;;
35418;SDS011;21525;41.240;16.500;2023-05-07T07:49:53;13.80;;;8.85;;
35418;SDS011;21525;41.240;16.500;2023-05-07T07:52:19;19.60;;;9.93;;
35418;SDS011;21525;41.240;16.500;2023-05-07T07:54:45;14.82;;;9.25;;
35418;SDS011;21525;41.240;16.500;2023-05-07T07:57:11;11.55;;;8.80;;
35418;SDS011;21525;41.240;16.500;2023-05-07T07:59:37;14.93;;;9.63;;
35418;SDS011;21525;41.240;16.500;2023-05-07T08:02:03;16.45;;;10.73;;
35418;SDS011;21525;41.240;16.500;2023-05-07T08:04:29;14.60;;;10.23;;
35418;SDS011;21525;41.240;16.500;2023-05-07T08:07:00;16.50;;;12.18;;
35418;SDS011;21525;41.240;16.500;2023-05-07T08:09:28;17.30;;;10.73;;
35418;SDS011;21525;41.240;16.500;2023-05-07T08:11:55;12.38;;;8.85;;
35418;SDS011;21525;41.240;16.500;2023-05-07T08:14:21;15.07;;;9.65;;
35418;SDS011;21525;41.240;16.500;2023-05-07T08:16:47;11.77;;;8.45;;
35418;SDS011;21525;41.240;16.500;2023-05-07T08:19:14;11.68;;;8.43;;
35418;SDS011;21525;41.240;16.500;2023-05-07T08:21:40;14.88;;;8.65;;
35418;SDS011;21525;41.240;16.500;2023-05-07T08:24:08;12.52;;;8.68;;
35418;SDS011;21525;41.240;16.500;2023-05-07T08:26:34;12.55;;;8.10;;
35418;SDS011;21525;41.240;16.500;2023-05-07T08:29:02;11.50;;;8.45;;
35418;SDS011;21525;41.240;16.500;2023-05-07T08:31:28;13.52;;;7.55;;
35418;SDS011;21525;41.240;16.500;2023-05-07T08:33:53;12.90;;;7.03;;
35418;SDS011;21525;41.240;16.500;2023-05-07T08:36:19;14.23;;;7.82;;
35418;SDS011;21525;41.240;16.500;2023-05-07T08:38:45;12.27;;;8.43;;
35418;SDS011;21525;41.240;16.500;2023-05-07T08:41:11;12.93;;;8.93;;
35418;SDS011;21525;41.240;16.500;2023-05-07T08:43:40;10.90;;;8.00;;
35418;SDS011;21525;41.240;16.500;2023-05-07T08:46:06;12.45;;;8.85;;
35418;SDS011;21525;41.240;16.500;2023-05-07T08:48:37;11.27;;;7.30;;
35418;SDS011;21525;41.240;16.500;2023-05-07T08:51:08;11.10;;;7.53;;
35418;SDS011;21525;41.240;16.500;2023-05-07T08:53:40;10.82;;;6.90;;
35418;SDS011;21525;41.240;16.500;2023-05-07T08:56:09;10.63;;;7.30;;
35418;SDS011;21525;41.240;16.500;2023-05-07T08:58:36;10.15;;;6.82;;
35418;SDS011;21525;41.240;16.500;2023-05-07T09:01:03;11.40;;;6.57;;
35418;SDS011;21525;41.240;16.500;2023-05-07T09:03:37;7.97;;;6.32;;
35418;SDS011;21525;41.240;16.500;2023-05-07T09:06:04;9.20;;;6.78;;
35418;SDS011;21525;41.240;16.500;2023-05-07T09:08:32;12.63;;;6.15;;
35418;SDS011;21525;41.240;16.500;2023-05-07T09:11:01;9.90;;;7.07;;
35418;SDS011;21525;41.240;16.500;2023-05-07T09:13:28;10.20;;;7.03;;
35418;SDS011;21525;41.240;16.500;2023-05-07T09:15:54;9.45;;;7.25;;
35418;SDS011;21525;41.240;16.500;2023-05-07T09:18:23;12.52;;;7.38;;
35418;SDS011;21525;41.240;16.500;2023-05-07T09:20:50;9.82;;;7.53;;
35418;SDS011;21525;41.240;16.500;2023-05-07T09:23:18;9.60;;;6.70;;
35418;SDS011;21525;41.240;16.500;2023-05-07T09:25:45;10.82;;;8.00;;
35418;SDS011;21525;41.240;16.500;2023-05-07T09:28:19;11.27;;;8.00;;
35418;SDS011;21525;41.240;16.500;2023-05-07T09:30:45;12.13;;;7.72;;
35418;SDS011;21525;41.240;16.500;2023-05-07T09:33:12;11.07;;;7.32;;
35418;SDS011;21525;41.240;16.500;2023-05-07T09:35:41;10.80;;;7.35;;
35418;SDS011;21525;41.240;16.500;2023-05-07T09:38:12;11.50;;;6.15;;
35418;SDS011;21525;41.240;16.500;2023-05-07T09:40:38;11.30;;;6.55;;
35418;SDS011;21525;41.240;16.500;2023-05-07T09:43:13;9.13;;;6.47;;
35418;SDS011;21525;41.240;16.500;2023-05-07T09:45:54;10.00;;;6.63;;
35418;SDS011;21525;41.240;16.500;2023-05-07T09:48:23;9.23;;;5.68;;
35418;SDS011;21525;41.240;16.500;2023-05-07T09:50:55;9.00;;;6.88;;
35418;SDS011;21525;41.240;16.500;2023-05-07T09:53:29;8.40;;;6.13;;
35418;SDS011;21525;41.240;16.500;2023-05-07T09:55:57;7.20;;;5.28;;
35418;SDS011;21525;41.240;16.500;2023-05-07T09:58:24;6.15;;;5.13;;
35418;SDS011;21525;41.240;16.500;2023-05-07T10:00:51;7.95;;;6.03;;
35418;SDS011;21525;41.240;16.500;2023-05-07T10:03:18;8.93;;;5.97;;
35418;SDS011;21525;41.240;16.500;2023-05-07T10:05:54;10.60;;;5.95;;
35418;SDS011;21525;41.240;16.500;2023-05-07T10:08:20;8.35;;;5.97;;
35418;SDS011;21525;41.240;16.500;2023-05-07T10:10:49;7.75;;;5.28;;
35418;SDS011;21525;41.240;16.500;2023-05-07T10:13:20;8.55;;;6.07;;
35418;SDS011;21525;41.240;16.500;2023-05-07T10:15:49;9.90;;;6.68;;
35418;SDS011;21525;41.240;16.500;2023-05-07T10:18:17;11.00;;;6.47;;
35418;SDS011;21525;41.240;16.500;2023-05-07T10:20:48;10.93;;;7.05;;
35418;SDS011;21525;41.240;16.500;2023-05-07T10:23:19;9.27;;;6.25;;
35418;SDS011;21525;41.240;16.500;2023-05-07T10:25:53;8.50;;;6.40;;
35418;SDS011;21525;41.240;16.500;2023-05-07T10:28:22;12.07;;;7.03;;
35418;SDS011;21525;41.240;16.500;2023-05-07T10:33:31;10.80;;;7.47;;
35418;SDS011;21525;41.240;16.500;2023-05-07T10:35:59;10.70;;;6.18;;
35418;SDS011;21525;41.240;16.500;2023-05-07T10:38:28;9.70;;;6.68;;
35418;SDS011;21525;41.240;16.500;2023-05-07T10:40:54;9.07;;;6.45;;
35418;SDS011;21525;41.240;16.500;2023-05-07T10:43:20;11.45;;;6.97;;
35418;SDS011;21525;41.240;16.500;2023-05-07T11:01:02;11.00;;;6.30;;
35418;SDS011;21525;41.240;16.500;2023-05-07T11:04:13;8.25;;;6.15;;
35418;SDS011;21525;41.240;16.500;2023-05-07T11:07:08;7.10;;;4.93;;
35418;SDS011;21525;41.240;16.500;2023-05-07T11:09:58;8.55;;;6.10;;
35418;SDS011;21525;41.240;16.500;2023-05-07T11:15:34;8.35;;;5.88;;
35418;SDS011;21525;41.240;16.500;2023-05-07T11:18:04;7.53;;;4.95;;
35418;SDS011;21525;41.240;16.500;2023-05-07T11:20:47;9.38;;;5.65;;
35418;SDS011;21525;41.240;16.500;2023-05-07T11:28:36;8.70;;;4.68;;
35418;SDS011;21525;41.240;16.500;2023-05-07T11:31:06;8.63;;;5.05;;
35418;SDS011;21525;41.240;16.500;2023-05-07T11:33:32;9.48;;;6.18;;
35418;SDS011;21525;41.240;16.500;2023-05-07T11:36:01;9.73;;;6.07;;
35418;SDS011;21525;41.240;16.500;2023-05-07T11:38:34;7.18;;;5.10;;
35418;SDS011;21525;41.240;16.500;2023-05-07T11:41:01;7.05;;;5.50;;
35418;SDS011;21525;41.240;16.500;2023-05-07T11:43:27;8.05;;;5.50;;
35418;SDS011;21525;41.240;16.500;2023-05-07T11:45:53;8.60;;;5.90;;
35418;SDS011;21525;41.240;16.500;2023-05-07T11:48:20;7.00;;;4.97;;
35418;SDS011;21525;41.240;16.500;2023-05-07T11:50:51;9.48;;;5.72;;
35418;SDS011;21525;41.240;16.500;2023-05-07T11:53:18;8.63;;;5.72;;
35418;SDS011;21525;41.240;16.500;2023-05-07T11:55:45;7.47;;;5.40;;
35418;SDS011;21525;41.240;16.500;2023-05-07T11:58:12;6.40;;;4.70;;
35418;SDS011;21525;41.240;16.500;2023-05-07T12:00:52;9.70;;;5.07;;
35418;SDS011;21525;41.240;16.500;2023-05-07T12:03:18;9.10;;;6.15;;
35418;SDS011;21525;41.240;16.500;2023-05-07T12:05:45;7.70;;;4.97;;
35418;SDS011;21525;41.240;16.500;2023-05-07T12:08:14;10.20;;;5.68;;
35418;SDS011;21525;41.240;16.500;2023-05-07T12:10:41;6.75;;;5.30;;
35418;SDS011;21525;41.240;16.500;2023-05-07T12:13:20;6.65;;;4.63;;
35418;SDS011;21525;41.240;16.500;2023-05-07T12:15:51;7.30;;;4.53;;
35418;SDS011;21525;41.240;16.500;2023-05-07T12:18:17;7.65;;;4.72;;
35418;SDS011;21525;41.240;16.500;2023-05-07T12:20:43;9.35;;;5.28;;
35418;SDS011;21525;41.240;16.500;2023-05-07T12:23:10;7.78;;;4.38;;
35418;SDS011;21525;41.240;16.500;2023-05-07T12:25:39;8.43;;;5.22;;
35418;SDS011;21525;41.240;16.500;2023-05-07T12:28:13;7.75;;;4.43;;
35418;SDS011;21525;41.240;16.500;2023-05-07T12:30:43;10.68;;;5.68;;
35418;SDS011;21525;41.240;16.500;2023-05-07T12:33:10;10.27;;;5.43;;
35418;SDS011;21525;41.240;16.500;2023-05-07T12:35:37;8.73;;;5.25;;
35418;SDS011;21525;41.240;16.500;2023-05-07T12:38:08;7.85;;;4.93;;
35418;SDS011;21525;41.240;16.500;2023-05-07T12:43:24;5.50;;;4.00;;
35418;SDS011;21525;41.240;16.500;2023-05-07T12:45:53;8.35;;;4.88;;
35418;SDS011;21525;41.240;16.500;2023-05-07T12:48:20;5.65;;;4.50;;
35418;SDS011;21525;41.240;16.500;2023-05-07T12:50:50;8.10;;;4.45;;
35418;SDS011;21525;41.240;16.500;2023-05-07T12:53:19;8.40;;;4.82;;
35418;SDS011;21525;41.240;16.500;2023-05-07T12:55:56;5.57;;;4.20;;
35418;SDS011;21525;41.240;16.500;2023-05-07T12:58:24;7.35;;;4.30;;
35418;SDS011;21525;41.240;16.500;2023-05-07T13:00:52;6.43;;;4.43;;
35418;SDS011;21525;41.240;16.500;2023-05-07T13:05:49;5.35;;;4.05;;
35418;SDS011;21525;41.240;16.500;2023-05-07T13:08:29;9.13;;;5.03;;
35418;SDS011;21525;41.240;16.500;2023-05-07T13:11:01;7.63;;;4.60;;
35418;SDS011;21525;41.240;16.500;2023-05-07T13:13:31;5.28;;;4.25;;
35418;SDS011;21525;41.240;16.500;2023-05-07T13:15:58;7.53;;;3.80;;
35418;SDS011;21525;41.240;16.500;2023-05-07T13:18:24;4.35;;;3.53;;
35418;SDS011;21525;41.240;16.500;2023-05-07T13:20:51;5.97;;;4.18;;
35418;SDS011;21525;41.240;16.500;2023-05-07T13:23:17;5.65;;;4.18;;
35418;SDS011;21525;41.240;16.500;2023-05-07T13:25:43;5.57;;;3.50;;
35418;SDS011;21525;41.240;16.500;2023-05-07T13:28:09;8.73;;;4.38;;
35418;SDS011;21525;41.240;16.500;2023-05-07T13:30:35;5.80;;;3.88;;
35418;SDS011;21525;41.240;16.500;2023-05-07T13:33:01;5.30;;;4.05;;
35418;SDS011;21525;41.240;16.500;2023-05-07T13:35:26;7.53;;;4.15;;
35418;SDS011;21525;41.240;16.500;2023-05-07T13:37:52;6.45;;;4.38;;
35418;SDS011;21525;41.240;16.500;2023-05-07T13:40:20;7.38;;;4.18;;
35418;SDS011;21525;41.240;16.500;2023-05-07T13:42:47;5.07;;;3.80;;
35418;SDS011;21525;41.240;16.500;2023-05-07T13:45:13;6.55;;;4.47;;
35418;SDS011;21525;41.240;16.500;2023-05-07T13:47:42;6.72;;;4.50;;
35418;SDS011;21525;41.240;16.500;2023-05-07T13:50:08;8.25;;;4.18;;
35418;SDS011;21525;41.240;16.500;2023-05-07T13:52:35;8.57;;;4.13;;
35418;SDS011;21525;41.240;16.500;2023-05-07T13:55:00;6.38;;;4.30;;
35418;SDS011;21525;41.240;16.500;2023-05-07T13:57:26;7.05;;;3.88;;
35418;SDS011;21525;41.240;16.500;2023-05-07T13:59:52;5.28;;;4.05;;
35418;SDS011;21525;41.240;16.500;2023-05-07T14:02:17;6.55;;;4.05;;
35418;SDS011;21525;41.240;16.500;2023-05-07T14:04:43;5.78;;;3.95;;
35418;SDS011;21525;41.240;16.500;2023-05-07T14:07:10;5.60;;;3.80;;
35418;SDS011;21525;41.240;16.500;2023-05-07T14:09:36;5.45;;;3.80;;
35418;SDS011;21525;41.240;16.500;2023-05-07T14:12:01;5.68;;;4.38;;
35418;SDS011;21525;41.240;16.500;2023-05-07T14:14:27;5.63;;;4.32;;
35418;SDS011;21525;41.240;16.500;2023-05-07T14:16:53;6.05;;;4.30;;
35418;SDS011;21525;41.240;16.500;2023-05-07T14:19:18;6.00;;;4.15;;
35418;SDS011;21525;41.240;16.500;2023-05-07T14:21:44;6.68;;;4.70;;
35418;SDS011;21525;41.240;16.500;2023-05-07T14:24:10;8.07;;;4.40;;
35418;SDS011;21525;41.240;16.500;2023-05-07T14:26:36;7.78;;;4.38;;
35418;SDS011;21525;41.240;16.500;2023-05-07T14:29:02;6.13;;;4.15;;
35418;SDS011;21525;41.240;16.500;2023-05-07T14:31:28;5.40;;;3.60;;
35418;SDS011;21525;41.240;16.500;2023-05-07T14:33:54;6.93;;;4.10;;
35418;SDS011;21525;41.240;16.500;2023-05-07T14:36:20;7.07;;;3.88;;
35418;SDS011;21525;41.240;16.500;2023-05-07T14:38:47;7.93;;;4.60;;
35418;SDS011;21525;41.240;16.500;2023-05-07T14:41:13;8.05;;;4.57;;
35418;SDS011;21525;41.240;16.500;2023-05-07T14:43:39;6.10;;;4.25;;
35418;SDS011;21525;41.240;16.500;2023-05-07T14:46:05;5.18;;;3.53;;
35418;SDS011;21525;41.240;16.500;2023-05-07T14:48:31;4.78;;;4.00;;
35418;SDS011;21525;41.240;16.500;2023-05-07T14:50:56;6.68;;;4.18;;
35418;SDS011;21525;41.240;16.500;2023-05-07T14:53:22;8.70;;;4.03;;
35418;SDS011;21525;41.240;16.500;2023-05-07T14:55:48;7.15;;;4.40;;
35418;SDS011;21525;41.240;16.500;2023-05-07T14:58:14;5.72;;;4.18;;
35418;SDS011;21525;41.240;16.500;2023-05-07T15:00:40;6.45;;;3.92;;